sensor_id;sensor_type;location;lat;lon;timestamp;pressure;altitude;pressure_sealevel;temperature;humidity
10176;BME280;18221;38.704;0.152;2023-06-05T00:13:13;98838.78;;;25.15;47.52
10176;BME280;18221;38.704;0.152;2023-06-05T00:15:45;98832.16;;;25.11;47.24
10176;BME280;18221;38.704;0.152;2023-06-05T00:18:13;98839.25;;;25.12;47.48
10176;BME280;18221;38.704;0.152;2023-06-05T00:20:42;98844.13;;;25.10;47.13
10176;BME280;18221;38.704;0.152;2023-06-05T00:23:10;98840.19;;;25.06;47.32
10176;BME280;18221;38.704;0.152;2023-06-05T00:25:38;98836.91;;;25.04;47.23
10176;BME280;18221;38.704;0.152;2023-06-05T00:28:06;98832.53;;;25.03;47.13
10176;BME280;18221;38.704;0.152;2023-06-05T00:30:35;98830.53;;;24.98;47.19
10176;BME280;18221;38.704;0.152;2023-06-05T00:33:05;98834.91;;;24.99;47.26
10176;BME280;18221;38.704;0.152;2023-06-05T00:35:33;98833.50;;;24.97;47.47
10176;BME280;18221;38.704;0.152;2023-06-05T00:38:01;98821.09;;;24.89;47.41
10176;BME280;18221;38.704;0.152;2023-06-05T00:40:29;98829.69;;;24.86;47.59
10176;BME280;18221;38.704;0.152;2023-06-05T00:42:57;98829.34;;;24.83;47.47
10176;BME280;18221;38.704;0.152;2023-06-05T00:45:26;98827.91;;;24.80;47.77
10176;BME280;18221;38.704;0.152;2023-06-05T00:47:56;98837.34;;;24.78;47.83
10176;BME280;18221;38.704;0.152;2023-06-05T00:50:24;98834.03;;;24.76;47.43
10176;BME280;18221;38.704;0.152;2023-06-05T00:52:53;98830.25;;;24.77;47.36
10176;BME280;18221;38.704;0.152;2023-06-05T00:55:22;98838.25;;;24.72;47.15
10176;BME280;18221;38.704;0.152;2023-06-05T00:57:51;98834.25;;;24.63;47.43
10176;BME280;18221;38.704;0.152;2023-06-05T01:00:19;98835.66;;;24.65;47.39
10176;BME280;18221;38.704;0.152;2023-06-05T01:02:47;98823.63;;;24.61;47.03
10176;BME280;18221;38.704;0.152;2023-06-05T01:05:21;98827.03;;;24.56;46.90
10176;BME280;18221;38.704;0.152;2023-06-05T01:07:49;98829.41;;;24.53;46.82
10176;BME280;18221;38.704;0.152;2023-06-05T01:10:17;98825.03;;;24.52;46.68
10176;BME280;18221;38.704;0.152;2023-06-05T01:12:56;98829.53;;;24.58;46.28
10176;BME280;18221;38.704;0.152;2023-06-05T01:15:29;98830.56;;;24.57;46.23
10176;BME280;18221;38.704;0.152;2023-06-05T01:17:59;98833.88;;;24.59;45.82
10176;BME280;18221;38.704;0.152;2023-06-05T01:20:34;98830.94;;;24.61;45.77
10176;BME280;18221;38.704;0.152;2023-06-05T01:23:04;98824.31;;;24.56;45.46
10176;BME280;18221;38.704;0.152;2023-06-05T01:25:32;98830.47;;;24.64;45.31
10176;BME280;18221;38.704;0.152;2023-06-05T01:28:12;98824.34;;;24.68;45.17
10176;BME280;18221;38.704;0.152;2023-06-05T01:30:50;98815.38;;;24.68;45.11
10176;BME280;18221;38.704;0.152;2023-06-05T01:33:32;98818.41;;;24.60;45.57
10176;BME280;18221;38.704;0.152;2023-06-05T01:36:10;98826.56;;;24.60;45.74
10176;BME280;18221;38.704;0.152;2023-06-05T01:38:45;98819.72;;;24.57;45.91
10176;BME280;18221;38.704;0.152;2023-06-05T01:41:17;98825.59;;;24.54;46.62
10176;BME280;18221;38.704;0.152;2023-06-05T01:43:47;98820.66;;;24.51;46.61
10176;BME280;18221;38.704;0.152;2023-06-05T01:46:20;98821.00;;;24.54;46.92
10176;BME280;18221;38.704;0.152;2023-06-05T01:48:49;98819.00;;;24.50;47.24
10176;BME280;18221;38.704;0.152;2023-06-05T01:51:17;98818.53;;;24.53;47.05
10176;BME280;18221;38.704;0.152;2023-06-05T01:53:47;98808.97;;;24.50;47.03
10176;BME280;18221;38.704;0.152;2023-06-05T01:56:16;98812.03;;;24.54;47.51
10176;BME280;18221;38.704;0.152;2023-06-05T01:58:47;98819.72;;;24.57;47.70
10176;BME280;18221;38.704;0.152;2023-06-05T02:01:15;98816.75;;;24.58;47.70
10176;BME280;18221;38.704;0.152;2023-06-05T02:03:45;98815.25;;;24.63;48.10
10176;BME280;18221;38.704;0.152;2023-06-05T02:06:14;98818.22;;;24.61;48.36
10176;BME280;18221;38.704;0.152;2023-06-05T02:08:46;98816.41;;;24.55;48.03
10176;BME280;18221;38.704;0.152;2023-06-05T02:11:14;98815.59;;;24.54;48.52
10176;BME280;18221;38.704;0.152;2023-06-05T02:13:41;98818.41;;;24.60;48.59
10176;BME280;18221;38.704;0.152;2023-06-05T02:16:11;98811.94;;;24.61;48.11
10176;BME280;18221;38.704;0.152;2023-06-05T02:18:40;98813.00;;;24.60;48.51
10176;BME280;18221;38.704;0.152;2023-06-05T02:21:08;98816.28;;;24.62;48.41
10176;BME280;18221;38.704;0.152;2023-06-05T02:23:36;98817.13;;;24.62;48.60
10176;BME280;18221;38.704;0.152;2023-06-05T02:26:06;98815.25;;;24.63;48.48
10176;BME280;18221;38.704;0.152;2023-06-05T02:28:35;98812.53;;;24.63;48.65
10176;BME280;18221;38.704;0.152;2023-06-05T02:31:03;98808.97;;;24.62;48.65
10176;BME280;18221;38.704;0.152;2023-06-05T02:33:31;98809.56;;;24.64;48.52
10176;BME280;18221;38.704;0.152;2023-06-05T02:35:59;98792.47;;;24.64;48.44
10176;BME280;18221;38.704;0.152;2023-06-05T02:38:27;98801.19;;;24.66;48.66
10176;BME280;18221;38.704;0.152;2023-06-05T02:40:57;98786.53;;;24.67;48.51
10176;BME280;18221;38.704;0.152;2023-06-05T02:43:27;98789.03;;;24.68;48.39
10176;BME280;18221;38.704;0.152;2023-06-05T02:45:55;98787.16;;;24.69;48.67
10176;BME280;18221;38.704;0.152;2023-06-05T02:48:22;98785.25;;;24.69;48.79
10176;BME280;18221;38.704;0.152;2023-06-05T02:50:50;98794.47;;;24.68;49.00
10176;BME280;18221;38.704;0.152;2023-06-05T02:53:18;98787.03;;;24.64;48.83
10176;BME280;18221;38.704;0.152;2023-06-05T02:55:46;98783.72;;;24.62;49.16
10176;BME280;18221;38.704;0.152;2023-06-05T02:58:16;98780.41;;;24.60;49.48
10176;BME280;18221;38.704;0.152;2023-06-05T03:00:45;98785.84;;;24.60;49.56
10176;BME280;18221;38.704;0.152;2023-06-05T03:03:14;98782.28;;;24.59;49.40
10176;BME280;18221;38.704;0.152;2023-06-05T03:05:43;98779.47;;;24.54;49.40
10176;BME280;18221;38.704;0.152;2023-06-05T03:08:11;98776.75;;;24.54;49.66
10176;BME280;18221;38.704;0.152;2023-06-05T03:10:40;98782.88;;;24.49;49.78
10176;BME280;18221;38.704;0.152;2023-06-05T03:13:08;98785.59;;;24.49;49.79
10176;BME280;18221;38.704;0.152;2023-06-05T03:15:36;98778.03;;;24.51;49.66
10176;BME280;18221;38.704;0.152;2023-06-05T03:18:08;98770.84;;;24.45;49.80
10176;BME280;18221;38.704;0.152;2023-06-05T03:20:36;98785.47;;;24.44;49.85
10176;BME280;18221;38.704;0.152;2023-06-05T03:23:04;98774.84;;;24.43;50.00
10176;BME280;18221;38.704;0.152;2023-06-05T03:25:35;98771.66;;;24.46;50.07
10176;BME280;18221;38.704;0.152;2023-06-05T03:28:03;98776.50;;;24.44;49.92
10176;BME280;18221;38.704;0.152;2023-06-05T03:30:31;98773.56;;;24.45;49.85
10176;BME280;18221;38.704;0.152;2023-06-05T03:32:59;98772.50;;;24.46;50.01
10176;BME280;18221;38.704;0.152;2023-06-05T03:35:31;98772.84;;;24.38;50.33
10176;BME280;18221;38.704;0.152;2023-06-05T03:38:01;98772.25;;;24.36;50.22
10176;BME280;18221;38.704;0.152;2023-06-05T03:40:29;98770.38;;;24.37;50.52
10176;BME280;18221;38.704;0.152;2023-06-05T03:42:58;98774.13;;;24.36;50.28
10176;BME280;18221;38.704;0.152;2023-06-05T03:45:26;98769.78;;;24.35;50.36
10176;BME280;18221;38.704;0.152;2023-06-05T03:47:54;98754.63;;;24.27;50.56
10176;BME280;18221;38.704;0.152;2023-06-05T03:50:27;98769.41;;;24.31;50.25
10176;BME280;18221;38.704;0.152;2023-06-05T03:52:57;98763.41;;;24.29;50.55
10176;BME280;18221;38.704;0.152;2023-06-05T03:55:30;98765.88;;;24.31;50.53
10176;BME280;18221;38.704;0.152;2023-06-05T03:58:10;98765.28;;;24.29;50.58
10176;BME280;18221;38.704;0.152;2023-06-05T04:00:40;98767.16;;;24.28;50.35
10176;BME280;18221;38.704;0.152;2023-06-05T04:03:12;98769.50;;;24.25;50.23
10176;BME280;18221;38.704;0.152;2023-06-05T04:05:42;98775.75;;;24.25;50.32
10176;BME280;18221;38.704;0.152;2023-06-05T04:08:11;98768.91;;;24.23;50.11
10176;BME280;18221;38.704;0.152;2023-06-05T04:10:40;98773.75;;;24.21;50.26
10176;BME280;18221;38.704;0.152;2023-06-05T04:13:08;98773.50;;;24.22;50.21
10176;BME280;18221;38.704;0.152;2023-06-05T04:15:36;98768.69;;;24.24;50.39
10176;BME280;18221;38.704;0.152;2023-06-05T04:18:05;98776.72;;;24.19;50.42
10176;BME280;18221;38.704;0.152;2023-06-05T04:20:33;98772.78;;;24.15;50.81
10176;BME280;18221;38.704;0.152;2023-06-05T04:23:02;98767.00;;;24.12;50.56
10176;BME280;18221;38.704;0.152;2023-06-05T04:25:30;98761.34;;;24.13;50.96
10176;BME280;18221;38.704;0.152;2023-06-05T04:27:58;98770.78;;;24.11;50.76
10176;BME280;18221;38.704;0.152;2023-06-05T04:30:27;98769.50;;;24.13;51.05
10176;BME280;18221;38.704;0.152;2023-06-05T04:32:58;98765.94;;;24.13;51.04
10176;BME280;18221;38.704;0.152;2023-06-05T04:35:26;98765.72;;;24.14;51.05
10176;BME280;18221;38.704;0.152;2023-06-05T04:37:55;98769.50;;;24.13;50.94
10176;BME280;18221;38.704;0.152;2023-06-05T04:40:24;98770.53;;;24.12;51.14
10176;BME280;18221;38.704;0.152;2023-06-05T04:42:52;98772.91;;;24.09;51.05
10176;BME280;18221;38.704;0.152;2023-06-05T04:45:20;98770.31;;;24.14;51.27
10176;BME280;18221;38.704;0.152;2023-06-05T04:47:48;98779.06;;;24.16;50.97
10176;BME280;18221;38.704;0.152;2023-06-05T04:50:23;98780.47;;;24.18;50.94
10176;BME280;18221;38.704;0.152;2023-06-05T04:52:52;98777.63;;;24.13;51.13
10176;BME280;18221;38.704;0.152;2023-06-05T04:55:21;98786.94;;;24.17;51.34
10176;BME280;18221;38.704;0.152;2023-06-05T04:57:50;98782.72;;;24.21;51.30
10176;BME280;18221;38.704;0.152;2023-06-05T05:00:19;98790.63;;;24.23;51.25
10176;BME280;18221;38.704;0.152;2023-06-05T05:02:48;98791.31;;;24.18;51.43
10176;BME280;18221;38.704;0.152;2023-06-05T05:05:17;98784.34;;;24.22;51.29
10176;BME280;18221;38.704;0.152;2023-06-05T05:07:46;98788.50;;;24.25;51.02
10176;BME280;18221;38.704;0.152;2023-06-05T05:10:14;98787.69;;;24.24;50.89
10176;BME280;18221;38.704;0.152;2023-06-05T05:12:42;98791.06;;;24.20;51.21
10176;BME280;18221;38.704;0.152;2023-06-05T05:15:12;98792.50;;;24.22;51.08
10176;BME280;18221;38.704;0.152;2023-06-05T05:17:39;98795.22;;;24.22;51.14
10176;BME280;18221;38.704;0.152;2023-06-05T05:20:08;98796.03;;;24.23;51.37
10176;BME280;18221;38.704;0.152;2023-06-05T05:22:37;98795.81;;;24.24;51.11
10176;BME280;18221;38.704;0.152;2023-06-05T05:25:06;98800.44;;;24.24;51.12
10176;BME280;18221;38.704;0.152;2023-06-05T05:27:35;98794.16;;;24.23;51.34
10176;BME280;18221;38.704;0.152;2023-06-05T05:30:03;98796.03;;;24.23;51.47
10176;BME280;18221;38.704;0.152;2023-06-05T05:32:32;98798.16;;;24.21;51.29
10176;BME280;18221;38.704;0.152;2023-06-05T05:35:00;98794.75;;;24.25;51.05
10176;BME280;18221;38.704;0.152;2023-06-05T05:37:29;98791.22;;;24.25;51.31
10176;BME280;18221;38.704;0.152;2023-06-05T05:39:57;98788.16;;;24.21;51.26
10176;BME280;18221;38.704;0.152;2023-06-05T05:42:25;98797.91;;;24.22;51.41
10176;BME280;18221;38.704;0.152;2023-06-05T05:44:53;98791.44;;;24.23;51.61
10176;BME280;18221;38.704;0.152;2023-06-05T05:47:21;98782.25;;;24.24;51.28
10176;BME280;18221;38.704;0.152;2023-06-05T05:49:50;98788.88;;;24.28;51.23
10176;BME280;18221;38.704;0.152;2023-06-05T05:52:18;98788.03;;;24.28;51.53
10176;BME280;18221;38.704;0.152;2023-06-05T05:54:48;98788.88;;;24.28;51.30
10176;BME280;18221;38.704;0.152;2023-06-05T05:57:18;98797.97;;;24.34;51.61
10176;BME280;18221;38.704;0.152;2023-06-05T05:59:48;98780.84;;;24.33;51.45
10176;BME280;18221;38.704;0.152;2023-06-05T06:02:16;98796.56;;;24.43;51.54
10176;BME280;18221;38.704;0.152;2023-06-05T06:04:45;98795.75;;;24.42;51.56
10176;BME280;18221;38.704;0.152;2023-06-05T06:07:15;98789.69;;;24.40;51.55
10176;BME280;18221;38.704;0.152;2023-06-05T06:09:43;98782.63;;;24.39;51.46
10176;BME280;18221;38.704;0.152;2023-06-05T06:12:12;98791.50;;;24.46;51.40
10176;BME280;18221;38.704;0.152;2023-06-05T06:14:40;98797.63;;;24.53;51.46
10176;BME280;18221;38.704;0.152;2023-06-05T06:17:08;98793.88;;;24.54;51.78
10176;BME280;18221;38.704;0.152;2023-06-05T06:19:38;98798.25;;;24.55;52.02
10176;BME280;18221;38.704;0.152;2023-06-05T06:22:07;98806.84;;;24.64;51.59
10176;BME280;18221;38.704;0.152;2023-06-05T06:24:40;98806.72;;;24.59;51.73
10176;BME280;18221;38.704;0.152;2023-06-05T06:27:08;98806.84;;;24.64;51.55
10176;BME280;18221;38.704;0.152;2023-06-05T06:29:48;98805.69;;;24.72;51.63
10176;BME280;18221;38.704;0.152;2023-06-05T06:32:18;98803.56;;;24.74;51.45
10176;BME280;18221;38.704;0.152;2023-06-05T06:34:47;98795.19;;;24.75;51.57
10176;BME280;18221;38.704;0.152;2023-06-05T06:37:15;98800.53;;;24.82;51.26
10176;BME280;18221;38.704;0.152;2023-06-05T06:39:45;98808.19;;;24.85;51.11
10176;BME280;18221;38.704;0.152;2023-06-05T06:42:13;98813.63;;;24.85;50.92
10176;BME280;18221;38.704;0.152;2023-06-05T06:44:41;98810.22;;;24.89;50.78
10176;BME280;18221;38.704;0.152;2023-06-05T06:47:09;98811.63;;;24.92;50.37
10176;BME280;18221;38.704;0.152;2023-06-05T06:49:37;98814.94;;;24.94;50.32
10176;BME280;18221;38.704;0.152;2023-06-05T06:52:06;98820.03;;;25.02;49.94
10176;BME280;18221;38.704;0.152;2023-06-05T06:54:34;98820.97;;;25.07;49.75
10176;BME280;18221;38.704;0.152;2023-06-05T06:57:06;98813.97;;;25.11;49.37
10176;BME280;18221;38.704;0.152;2023-06-05T06:59:34;98814.22;;;25.10;49.08
10176;BME280;18221;38.704;0.152;2023-06-05T07:02:13;98823.78;;;25.24;48.88
10176;BME280;18221;38.704;0.152;2023-06-05T07:04:43;98825.19;;;25.27;48.94
10176;BME280;18221;38.704;0.152;2023-06-05T07:07:14;98828.25;;;25.30;48.73
10176;BME280;18221;38.704;0.152;2023-06-05T07:09:44;98822.56;;;25.32;48.36
10176;BME280;18221;38.704;0.152;2023-06-05T07:12:17;98832.28;;;25.39;47.91
10176;BME280;18221;38.704;0.152;2023-06-05T07:14:45;98831.78;;;25.42;47.43
10176;BME280;18221;38.704;0.152;2023-06-05T07:17:13;98836.56;;;25.47;47.78
10176;BME280;18221;38.704;0.152;2023-06-05T07:19:41;98836.91;;;25.78;47.12
10176;BME280;18221;38.704;0.152;2023-06-05T07:22:09;98842.50;;;26.12;46.92
10176;BME280;18221;38.704;0.152;2023-06-05T07:24:37;98841.41;;;26.24;45.71
10176;BME280;18221;38.704;0.152;2023-06-05T07:27:06;98840.88;;;26.56;45.34
10176;BME280;18221;38.704;0.152;2023-06-05T07:29:36;98836.34;;;26.78;44.33
10176;BME280;18221;38.704;0.152;2023-06-05T07:32:04;98845.34;;;26.95;43.88
10176;BME280;18221;38.704;0.152;2023-06-05T07:34:33;98832.03;;;27.15;43.26
10176;BME280;18221;38.704;0.152;2023-06-05T07:37:02;98834.47;;;27.33;43.04
10176;BME280;18221;38.704;0.152;2023-06-05T07:39:30;98834.06;;;27.41;42.69
10176;BME280;18221;38.704;0.152;2023-06-05T07:41:58;98842.03;;;27.48;42.69
10176;BME280;18221;38.704;0.152;2023-06-05T07:44:26;98836.31;;;27.66;42.64
10176;BME280;18221;38.704;0.152;2023-06-05T07:46:55;98840.66;;;27.89;41.91
10176;BME280;18221;38.704;0.152;2023-06-05T07:49:24;98831.53;;;28.00;41.36
10176;BME280;18221;38.704;0.152;2023-06-05T07:51:52;98832.47;;;28.37;40.74
10176;BME280;18221;38.704;0.152;2023-06-05T07:54:20;98838.69;;;28.86;39.96
10176;BME280;18221;38.704;0.152;2023-06-05T07:56:49;98832.66;;;29.21;38.33
10176;BME280;18221;38.704;0.152;2023-06-05T07:59:18;98838.59;;;29.55;37.94
10176;BME280;18221;38.704;0.152;2023-06-05T08:01:51;98830.44;;;29.70;36.93
10176;BME280;18221;38.704;0.152;2023-06-05T08:04:21;98836.97;;;30.26;37.01
10176;BME280;18221;38.704;0.152;2023-06-05T08:06:51;98836.75;;;30.78;35.69
10176;BME280;18221;38.704;0.152;2023-06-05T08:09:19;98837.28;;;31.35;34.83
10176;BME280;18221;38.704;0.152;2023-06-05T08:11:47;98839.31;;;31.84;33.82
10176;BME280;18221;38.704;0.152;2023-06-05T08:14:16;98832.84;;;32.62;32.30
10176;BME280;18221;38.704;0.152;2023-06-05T08:16:44;98824.94;;;33.47;31.05
10176;BME280;18221;38.704;0.152;2023-06-05T08:19:12;98831.34;;;34.08;29.75
10176;BME280;18221;38.704;0.152;2023-06-05T08:21:42;98831.25;;;34.56;29.06
10176;BME280;18221;38.704;0.152;2023-06-05T08:24:10;98833.47;;;34.72;27.85
10176;BME280;18221;38.704;0.152;2023-06-05T08:26:38;98840.91;;;35.50;26.86
10176;BME280;18221;38.704;0.152;2023-06-05T08:29:06;98832.75;;;35.86;25.91
10176;BME280;18221;38.704;0.152;2023-06-05T08:31:34;98833.09;;;36.34;25.15
10176;BME280;18221;38.704;0.152;2023-06-05T08:34:02;98838.69;;;36.07;25.02
10176;BME280;18221;38.704;0.152;2023-06-05T08:36:30;98846.00;;;36.96;24.26
10176;BME280;18221;38.704;0.152;2023-06-05T08:39:00;98833.91;;;37.15;23.80
10176;BME280;18221;38.704;0.152;2023-06-05T08:41:30;98837.19;;;37.47;23.06
10176;BME280;18221;38.704;0.152;2023-06-05T08:43:59;98837.91;;;37.61;23.31
10176;BME280;18221;38.704;0.152;2023-06-05T08:46:29;98837.91;;;37.61;22.63
10176;BME280;18221;38.704;0.152;2023-06-05T08:48:58;98843.63;;;37.73;22.60
10176;BME280;18221;38.704;0.152;2023-06-05T08:51:33;98844.22;;;37.53;22.84
10176;BME280;18221;38.704;0.152;2023-06-05T08:54:04;98843.41;;;37.00;23.81
10176;BME280;18221;38.704;0.152;2023-06-05T08:56:39;98839.72;;;36.11;24.88
10176;BME280;18221;38.704;0.152;2023-06-05T08:59:08;98844.34;;;35.28;26.52
10176;BME280;18221;38.704;0.152;2023-06-05T09:01:36;98838.66;;;34.74;27.29
10176;BME280;18221;38.704;0.152;2023-06-05T09:04:04;98836.19;;;33.74;28.58
10176;BME280;18221;38.704;0.152;2023-06-05T09:06:32;98838.38;;;33.25;29.61
10176;BME280;18221;38.704;0.152;2023-06-05T09:09:02;98841.97;;;32.58;31.09
10176;BME280;18221;38.704;0.152;2023-06-05T09:11:31;98856.56;;;31.94;32.61
10176;BME280;18221;38.704;0.152;2023-06-05T09:14:01;98852.44;;;30.97;34.03
10176;BME280;18221;38.704;0.152;2023-06-05T09:16:37;98860.06;;;30.80;34.73
10176;BME280;18221;38.704;0.152;2023-06-05T09:19:06;98853.22;;;30.58;34.84
10176;BME280;18221;38.704;0.152;2023-06-05T09:21:35;98854.75;;;30.18;35.49
10176;BME280;18221;38.704;0.152;2023-06-05T09:24:16;98849.47;;;29.96;36.26
10176;BME280;18221;38.704;0.152;2023-06-05T09:26:55;98851.47;;;29.59;36.35
10176;BME280;18221;38.704;0.152;2023-06-05T09:29:26;98848.25;;;29.72;36.48
10176;BME280;18221;38.704;0.152;2023-06-05T09:31:59;98850.09;;;29.57;37.20
10176;BME280;18221;38.704;0.152;2023-06-05T09:34:29;98843.50;;;29.48;37.24
10176;BME280;18221;38.704;0.152;2023-06-05T09:37:01;98844.19;;;29.28;37.72
10176;BME280;18221;38.704;0.152;2023-06-05T09:39:32;98853.09;;;29.13;37.63
10176;BME280;18221;38.704;0.152;2023-06-05T09:42:00;98847.72;;;28.92;38.37
10176;BME280;18221;38.704;0.152;2023-06-05T09:44:30;98852.53;;;28.74;38.94
10176;BME280;18221;38.704;0.152;2023-06-05T09:47:00;98852.59;;;28.58;39.41
10176;BME280;18221;38.704;0.152;2023-06-05T09:49:33;98862.47;;;28.86;39.13
10176;BME280;18221;38.704;0.152;2023-06-05T09:52:14;98863.13;;;28.71;39.79
10176;BME280;18221;38.704;0.152;2023-06-05T09:54:45;98859.72;;;28.59;39.25
10176;BME280;18221;38.704;0.152;2023-06-05T09:57:15;98859.28;;;28.67;39.74
10176;BME280;18221;38.704;0.152;2023-06-05T09:59:50;98852.34;;;28.86;39.74
10176;BME280;18221;38.704;0.152;2023-06-05T10:02:22;98856.50;;;28.62;39.45
10176;BME280;18221;38.704;0.152;2023-06-05T10:04:56;98858.03;;;28.80;39.23
10176;BME280;18221;38.704;0.152;2023-06-05T10:07:25;98855.72;;;28.98;39.17
10176;BME280;18221;38.704;0.152;2023-06-05T10:09:54;98850.66;;;29.17;38.88
10176;BME280;18221;38.704;0.152;2023-06-05T10:12:24;98856.91;;;29.12;38.62
10176;BME280;18221;38.704;0.152;2023-06-05T10:14:54;98848.81;;;29.22;38.22
10176;BME280;18221;38.704;0.152;2023-06-05T10:17:23;98853.56;;;29.05;38.97
10176;BME280;18221;38.704;0.152;2023-06-05T10:19:52;98855.84;;;29.18;38.39
10176;BME280;18221;38.704;0.152;2023-06-05T10:22:22;98846.38;;;29.26;38.76
10176;BME280;18221;38.704;0.152;2023-06-05T10:25:00;98844.53;;;29.42;38.31
10176;BME280;18221;38.704;0.152;2023-06-05T10:27:54;98844.91;;;29.18;37.86
10176;BME280;18221;38.704;0.152;2023-06-05T10:33:55;98848.28;;;29.25;39.18
10176;BME280;18221;38.704;0.152;2023-06-05T10:37:15;98837.28;;;29.20;38.53
10176;BME280;18221;38.704;0.152;2023-06-05T10:39:50;98836.78;;;29.23;38.61
10176;BME280;18221;38.704;0.152;2023-06-05T10:42:26;98841.78;;;29.36;38.27
10176;BME280;18221;38.704;0.152;2023-06-05T10:44:56;98846.41;;;29.36;38.71
10176;BME280;18221;38.704;0.152;2023-06-05T10:47:50;98838.91;;;29.63;38.52
10176;BME280;18221;38.704;0.152;2023-06-05T10:50:24;98848.28;;;29.25;37.93
10176;BME280;18221;38.704;0.152;2023-06-05T10:52:55;98844.47;;;29.26;38.46
10176;BME280;18221;38.704;0.152;2023-06-05T10:55:26;98840.41;;;29.34;38.83
10176;BME280;18221;38.704;0.152;2023-06-05T10:58:10;98839.25;;;29.25;37.74
10176;BME280;18221;38.704;0.152;2023-06-05T11:01:19;98842.94;;;29.09;37.97
10176;BME280;18221;38.704;0.152;2023-06-05T11:03:55;98840.69;;;29.01;37.30
10176;BME280;18221;38.704;0.152;2023-06-05T11:06:24;98835.41;;;28.89;37.85
10176;BME280;18221;38.704;0.152;2023-06-05T11:09:12;98839.81;;;28.90;38.48
10176;BME280;18221;38.704;0.152;2023-06-05T11:11:59;98844.78;;;28.98;38.96
10176;BME280;18221;38.704;0.152;2023-06-05T11:14:52;98841.75;;;28.95;38.51
10176;BME280;18221;38.704;0.152;2023-06-05T11:17:33;98834.75;;;28.72;37.91
10176;BME280;18221;38.704;0.152;2023-06-05T11:20:02;98837.91;;;28.91;39.11
10176;BME280;18221;38.704;0.152;2023-06-05T11:23:09;98836.94;;;29.07;38.75
10176;BME280;18221;38.704;0.152;2023-06-05T11:25:37;98835.47;;;28.99;38.06
10176;BME280;18221;38.704;0.152;2023-06-05T11:28:06;98833.34;;;29.01;38.91
10176;BME280;18221;38.704;0.152;2023-06-05T11:30:41;98829.50;;;29.02;38.37
10176;BME280;18221;38.704;0.152;2023-06-05T11:33:11;98833.53;;;28.95;37.88
10176;BME280;18221;38.704;0.152;2023-06-05T11:35:40;98828.84;;;28.58;39.08
10176;BME280;18221;38.704;0.152;2023-06-05T11:38:11;98826.66;;;28.87;38.82
10176;BME280;18221;38.704;0.152;2023-06-05T11:40:41;98819.16;;;29.09;38.46
10176;BME280;18221;38.704;0.152;2023-06-05T11:43:12;98817.66;;;29.28;38.12
10176;BME280;18221;38.704;0.152;2023-06-05T11:45:49;98813.00;;;29.24;38.37
10176;BME280;18221;38.704;0.152;2023-06-05T11:48:17;98811.41;;;29.33;37.94
10176;BME280;18221;38.704;0.152;2023-06-05T11:50:57;98806.44;;;29.25;38.61
10176;BME280;18221;38.704;0.152;2023-06-05T11:53:27;98813.75;;;29.19;37.58
10176;BME280;18221;38.704;0.152;2023-06-05T11:55:56;98806.19;;;29.31;38.26
10176;BME280;18221;38.704;0.152;2023-06-05T11:58:36;98808.97;;;29.36;38.12
10176;BME280;18221;38.704;0.152;2023-06-05T12:01:08;98805.38;;;29.31;38.04
10176;BME280;18221;38.704;0.152;2023-06-05T12:03:41;98801.56;;;28.95;37.90
10176;BME280;18221;38.704;0.152;2023-06-05T12:06:09;98804.78;;;28.87;39.09
10176;BME280;18221;38.704;0.152;2023-06-05T12:08:40;98799.41;;;29.02;38.67
10176;BME280;18221;38.704;0.152;2023-06-05T12:11:26;98802.22;;;29.12;39.03
10176;BME280;18221;38.704;0.152;2023-06-05T12:13:56;98802.19;;;29.07;38.83
10176;BME280;18221;38.704;0.152;2023-06-05T12:16:33;98798.81;;;28.90;38.31
10176;BME280;18221;38.704;0.152;2023-06-05T12:19:03;98798.34;;;29.03;38.33
10176;BME280;18221;38.704;0.152;2023-06-05T12:21:38;98799.91;;;29.36;38.41
10176;BME280;18221;38.704;0.152;2023-06-05T12:24:06;98790.63;;;29.32;37.38
10176;BME280;18221;38.704;0.152;2023-06-05T12:26:51;98796.63;;;29.29;37.63
10176;BME280;18221;38.704;0.152;2023-06-05T12:29:21;98804.34;;;29.47;37.57
10176;BME280;18221;38.704;0.152;2023-06-05T12:31:51;98803.00;;;29.50;37.45
10176;BME280;18221;38.704;0.152;2023-06-05T12:34:38;98804.03;;;29.38;37.04
10176;BME280;18221;38.704;0.152;2023-06-05T12:37:07;98804.06;;;29.44;37.99
10176;BME280;18221;38.704;0.152;2023-06-05T12:39:35;98797.75;;;29.33;38.22
10176;BME280;18221;38.704;0.152;2023-06-05T12:42:04;98796.44;;;29.46;37.12
10176;BME280;18221;38.704;0.152;2023-06-05T12:44:32;98799.31;;;29.24;37.66
10176;BME280;18221;38.704;0.152;2023-06-05T12:47:02;98806.09;;;29.16;37.55
10176;BME280;18221;38.704;0.152;2023-06-05T12:49:30;98808.13;;;28.99;38.04
10176;BME280;18221;38.704;0.152;2023-06-05T12:51:58;98798.34;;;29.03;38.54
10176;BME280;18221;38.704;0.152;2023-06-05T12:54:27;98791.41;;;29.27;37.82
10176;BME280;18221;38.704;0.152;2023-06-05T12:56:57;98784.19;;;29.11;37.67
10176;BME280;18221;38.704;0.152;2023-06-05T12:59:25;98784.59;;;28.88;37.84
10176;BME280;18221;38.704;0.152;2023-06-05T13:01:52;98784.22;;;29.16;37.37
10176;BME280;18221;38.704;0.152;2023-06-05T13:04:22;98776.06;;;29.21;37.84
10176;BME280;18221;38.704;0.152;2023-06-05T13:06:50;98775.44;;;29.09;37.60
10176;BME280;18221;38.704;0.152;2023-06-05T13:09:20;98776.22;;;29.10;37.67
10176;BME280;18221;38.704;0.152;2023-06-05T13:11:48;98772.06;;;28.97;37.73
10176;BME280;18221;38.704;0.152;2023-06-05T13:14:16;98776.94;;;28.90;38.36
10176;BME280;18221;38.704;0.152;2023-06-05T13:16:44;98777.97;;;28.84;38.01
10176;BME280;18221;38.704;0.152;2023-06-05T13:19:12;98776.09;;;28.90;37.98
10176;BME280;18221;38.704;0.152;2023-06-05T13:21:41;98775.59;;;28.93;37.66
10176;BME280;18221;38.704;0.152;2023-06-05T13:24:09;98785.69;;;28.92;37.26
10176;BME280;18221;38.704;0.152;2023-06-05T13:26:38;98786.75;;;28.86;37.69
10176;BME280;18221;38.704;0.152;2023-06-05T13:29:08;98788.50;;;29.07;38.24
10176;BME280;18221;38.704;0.152;2023-06-05T13:31:36;98791.84;;;28.72;37.71
10176;BME280;18221;38.704;0.152;2023-06-05T13:34:04;98784.75;;;28.76;38.39